KTHV/THV METAR and TAF weather

Enter ICAO airport designator
Station Type Date Time Source
KTHV METAR 2022/11/30 10:53 UTC NOAA

KTHV 301053Z AUTO VRB04KT 10SM OVC012 08/06 A3000 RMK AO2 SLP162 T00830056


Station Type Date Time Source
KTHV Decoded METAR 2022/11/30 10:53 UTC NOAA

YORK AIRPORT, PA, United States (KTHV) 39-55N 076-53W 144M
Nov 30, 2022 - 05:53 AM EST / 2022.11.30 1053 UTC
Wind: Variable at 5 MPH (4 KT):0
Visibility: 10 mile(s):0
Sky conditions: overcast
Temperature: 46.9 F (8.3 C)
Dew Point: 42.1 F (5.6 C)
Relative Humidity: 83%
Pressure (altimeter): 30 in. Hg (1015 hPa)
ob: KTHV 301053Z AUTO VRB04KT 10SM OVC012 08/06 A3000 RMK AO2 SLP162 T00830056
cycle: 11

Station Type Date Time Source
KTHV TAF UTC NOAA

Error!

Example: see airport list